Flight Track Log - Related Links

Times and Time Zones

All times are in EST time to prevent confusion due to time zone crossing. See the QXE2348 flight status page for this flight to view local times or setup timezone preferences in your user account.


Time Position Orientation Groundspeed Altitude Reporting Facility
EST Latitude Longitude Course Direction KTS MPH feet Rate Location/Type
Sat 01:30:00 PM 47.4167 -121.5384 90° East  Level FlightAware Approximate
Sat 01:31:00 PM 47.4167 -121.4109 90° East  Level FlightAware Approximate
Sat 01:32:00 PM 47.4167 -121.2833 90° East  Level FlightAware Approximate
Sat 01:33:00 PM 47.4167 -121.1558 90° East  Level FlightAware Approximate
Sat 01:34:00 PM 47.4167 -121.0283 90° East  Level FlightAware Approximate
Sat 01:35:00 PM 47.4122 -120.9011 95° East  Level FlightAware Approximate
Sat 01:36:00 PM 47.4051 -120.7740 95° East  Level FlightAware Approximate
Sat 01:37:00 PM 47.3995 -120.6465 90° East  Level Estimated
Sat 01:38:00 PM 47.4246 -120.5242 73° East  Level FlightAware Approximate
Sat 01:39:00 PM 47.4181 -120.3968 78° East  Level Estimated
Sat 01:40:00 PM 47.4115 -120.2693 90° East  Level Estimated
Sat 01:41:00 PM 47.4491 -120.1542 64° Northeast  Level FlightAware Approximate
Sat 01:42:00 PM 47.4412 -120.0268 90° East  Level Estimated
Sat 01:43:00 PM 47.4455 -119.8991 87° East  Level FlightAware Approximate
Sat 01:44:00 PM 47.4496 -119.7713 87° East  Level FlightAware Approximate
Sat 01:45:00 PM 47.4536 -119.6436 87° East  Level FlightAware Approximate
Sat 01:46:00 PM 47.4574 -119.5158 87° East  Level FlightAware Approximate
Sat 01:47:00 PM 47.4611 -119.3880 88° East  Level FlightAware Approximate
Sat 01:48:00 PM 47.4646 -119.2602 88° East  Level FlightAware Approximate
Sat 01:49:00 PM 47.4540 -119.1332 88° East  Level Estimated
Sat 01:50:00 PM 47.4578 -119.0055 87° East  Level FlightAware Approximate
Sat 01:51:00 PM 47.4614 -118.8777 88° East  Level FlightAware Approximate
Sat 01:52:00 PM 47.4649 -118.7498 88° East  Level FlightAware Approximate
Sat 01:53:00 PM 47.4682 -118.6220 88° East  Level FlightAware Approximate
Sat 01:54:00 PM 47.4714 -118.4941 88° East  Level FlightAware Approximate
Sat 01:55:00 PM 47.4744 -118.3689 88° East  Level FlightAware Approximate
Sat 01:56:00 PM 47.4772 -118.2436 88° East  Level FlightAware Approximate
Sat 01:57:00 PM 47.4799 -118.1166 88° East  Level FlightAware Approximate
Sat 01:58:00 PM 47.4826 -117.9896 88° East  Level FlightAware Approximate
Sat 01:59:00 PM 47.4827 -117.8626 91° East  Level FlightAware Approximate
Sat 02:00:00 PM 47.4818 -117.7355 91° East  Level FlightAware Approximate
Sat 02:01:00 PM 47.4807 -117.6084 91° East  Level FlightAware Approximate
Sat 02:02:00 PM 47.4795 -117.4813 91° East  Level FlightAware Approximate
Sat 02:03:00 PM 47.4781 -117.3542 91° East  Level FlightAware Approximate
Sat 02:04:00 PM 47.4766 -117.2271 91° East  Level FlightAware Approximate
Sat 02:05:00 PM 47.4749 -117.1001 91° East  Level FlightAware Approximate
Sat 02:06:00 PM 47.4731 -116.9730 91° East  Level FlightAware Approximate
Sat 02:07:00 PM 47.4711 -116.8459 91° East  Level FlightAware Approximate
Sat 02:08:00 PM 47.4691 -116.7189 91° East  Level FlightAware Approximate
Sat 02:09:00 PM 47.4668 -116.5919 91° East  Level FlightAware Approximate
Sat 02:10:00 PM 47.4633 -116.4649 92° East  Level FlightAware Approximate
Sat 02:11:00 PM 47.4596 -116.3380 92° East  Level FlightAware Approximate
Sat 02:12:00 PM 47.4557 -116.2111 93° East  Level FlightAware Approximate
Sat 02:13:00 PM 47.4516 -116.0842 93° East  Level FlightAware Approximate
Sat 02:14:00 PM 47.4500 -115.9572 90° East  Level FlightAware Approximate
Sat 02:15:00 PM 47.4500 -115.8302 90° East  Level FlightAware Approximate
Sat 02:16:00 PM 47.4500 -115.7032 90° East  Level FlightAware Approximate
Sat 02:17:00 PM 47.4350 -115.5807 113° Southeast  Level FlightAware Approximate
Sat 02:18:00 PM 47.4032 -115.4627 110° East  Level FlightAware Approximate
Sat 02:19:00 PM 47.3735 -115.3437 110° East  Level FlightAware Approximate
Sat 02:20:00 PM 47.3436 -115.2243 110° East  Level FlightAware Approximate
Sat 02:21:00 PM 47.3138 -115.1050 110° East  Level FlightAware Approximate
Sat 02:22:00 PM 47.2809 -114.9877 106° East  Level FlightAware Approximate
Sat 02:23:00 PM 47.2575 -114.8663 112° Southeast  Level FlightAware Approximate
Sat 02:24:00 PM 47.2254 -114.7485 112° Southeast  Level FlightAware Approximate
Sat 02:25:00 PM 47.1914 -114.6320 110° East  Level FlightAware Approximate

Login

Don't have an account? Register now (free) for customized features, flight alerts, and more!